sensor_id;sensor_type;location;lat;lon;timestamp;P1;durP1;ratioP1;P2;durP2;ratioP2
61938;SDS011;47897;50.322;18.892;2023-02-04T00:01:09;11.70;;;6.30;;
61938;SDS011;47897;50.322;18.892;2023-02-04T00:03:36;8.30;;;4.30;;
61938;SDS011;47897;50.322;18.892;2023-02-04T00:06:03;8.90;;;4.00;;
61938;SDS011;47897;50.322;18.892;2023-02-04T00:08:29;12.40;;;4.80;;
61938;SDS011;47897;50.322;18.892;2023-02-04T00:10:56;13.60;;;4.30;;
61938;SDS011;47897;50.322;18.892;2023-02-04T00:13:23;10.90;;;3.50;;
61938;SDS011;47897;50.322;18.892;2023-02-04T00:15:49;8.30;;;3.20;;
61938;SDS011;47897;50.322;18.892;2023-02-04T00:18:16;6.60;;;3.90;;
61938;SDS011;47897;50.322;18.892;2023-02-04T00:20:42;5.20;;;3.20;;
61938;SDS011;47897;50.322;18.892;2023-02-04T00:23:09;8.70;;;3.70;;
61938;SDS011;47897;50.322;18.892;2023-02-04T00:25:36;12.10;;;4.20;;
61938;SDS011;47897;50.322;18.892;2023-02-04T00:28:02;11.80;;;4.30;;
61938;SDS011;47897;50.322;18.892;2023-02-04T00:30:29;8.30;;;5.40;;
61938;SDS011;47897;50.322;18.892;2023-02-04T00:32:56;9.80;;;4.10;;
61938;SDS011;47897;50.322;18.892;2023-02-04T00:35:23;7.90;;;3.30;;
61938;SDS011;47897;50.322;18.892;2023-02-04T00:37:49;7.00;;;3.10;;
61938;SDS011;47897;50.322;18.892;2023-02-04T00:40:16;7.40;;;3.30;;
61938;SDS011;47897;50.322;18.892;2023-02-04T00:42:43;6.60;;;2.60;;
61938;SDS011;47897;50.322;18.892;2023-02-04T00:45:10;8.90;;;3.30;;
61938;SDS011;47897;50.322;18.892;2023-02-04T00:47:37;7.60;;;3.40;;
61938;SDS011;47897;50.322;18.892;2023-02-04T00:50:04;4.60;;;3.30;;
61938;SDS011;47897;50.322;18.892;2023-02-04T00:52:31;4.30;;;1.90;;
61938;SDS011;47897;50.322;18.892;2023-02-04T00:54:58;5.70;;;2.80;;
61938;SDS011;47897;50.322;18.892;2023-02-04T00:57:25;13.20;;;4.70;;
61938;SDS011;47897;50.322;18.892;2023-02-04T00:59:51;8.30;;;4.10;;
61938;SDS011;47897;50.322;18.892;2023-02-04T01:02:18;9.20;;;3.80;;
61938;SDS011;47897;50.322;18.892;2023-02-04T01:04:45;10.90;;;3.40;;
61938;SDS011;47897;50.322;18.892;2023-02-04T01:07:11;5.50;;;3.00;;
61938;SDS011;47897;50.322;18.892;2023-02-04T01:09:38;9.00;;;3.00;;
61938;SDS011;47897;50.322;18.892;2023-02-04T01:12:05;5.70;;;3.20;;
61938;SDS011;47897;50.322;18.892;2023-02-04T01:14:31;7.90;;;3.60;;
61938;SDS011;47897;50.322;18.892;2023-02-04T01:16:58;8.60;;;3.50;;
61938;SDS011;47897;50.322;18.892;2023-02-04T01:19:24;11.20;;;4.00;;
61938;SDS011;47897;50.322;18.892;2023-02-04T01:21:51;8.50;;;4.80;;
61938;SDS011;47897;50.322;18.892;2023-02-04T01:24:18;6.50;;;4.00;;
61938;SDS011;47897;50.322;18.892;2023-02-04T01:26:44;5.30;;;3.10;;
61938;SDS011;47897;50.322;18.892;2023-02-04T01:29:11;11.60;;;6.90;;
61938;SDS011;47897;50.322;18.892;2023-02-04T01:31:37;21.60;;;10.60;;
61938;SDS011;47897;50.322;18.892;2023-02-04T01:34:04;14.00;;;8.20;;
61938;SDS011;47897;50.322;18.892;2023-02-04T01:36:31;11.70;;;7.30;;
61938;SDS011;47897;50.322;18.892;2023-02-04T01:38:57;7.70;;;4.00;;
61938;SDS011;47897;50.322;18.892;2023-02-04T01:41:26;3.20;;;1.60;;
61938;SDS011;47897;50.322;18.892;2023-02-04T01:43:53;2.40;;;1.40;;
61938;SDS011;47897;50.322;18.892;2023-02-04T01:46:19;2.90;;;1.80;;
61938;SDS011;47897;50.322;18.892;2023-02-04T01:48:46;2.80;;;1.70;;
61938;SDS011;47897;50.322;18.892;2023-02-04T01:51:14;4.60;;;2.50;;
61938;SDS011;47897;50.322;18.892;2023-02-04T01:53:41;2.70;;;1.70;;
61938;SDS011;47897;50.322;18.892;2023-02-04T01:56:15;3.20;;;1.50;;
61938;SDS011;47897;50.322;18.892;2023-02-04T01:58:43;2.10;;;1.20;;
61938;SDS011;47897;50.322;18.892;2023-02-04T02:01:14;16.30;;;7.00;;
61938;SDS011;47897;50.322;18.892;2023-02-04T02:03:41;13.20;;;4.40;;
61938;SDS011;47897;50.322;18.892;2023-02-04T02:06:08;5.40;;;2.30;;
61938;SDS011;47897;50.322;18.892;2023-02-04T02:08:35;2.80;;;1.60;;
61938;SDS011;47897;50.322;18.892;2023-02-04T02:11:03;3.00;;;1.80;;
61938;SDS011;47897;50.322;18.892;2023-02-04T02:13:29;5.10;;;2.50;;
61938;SDS011;47897;50.322;18.892;2023-02-04T02:15:56;6.80;;;3.70;;
61938;SDS011;47897;50.322;18.892;2023-02-04T02:18:23;4.40;;;2.20;;
61938;SDS011;47897;50.322;18.892;2023-02-04T02:20:50;7.20;;;2.40;;
61938;SDS011;47897;50.322;18.892;2023-02-04T02:23:19;5.60;;;2.60;;
61938;SDS011;47897;50.322;18.892;2023-02-04T02:25:47;4.50;;;2.60;;
61938;SDS011;47897;50.322;18.892;2023-02-04T02:28:16;4.90;;;2.00;;
61938;SDS011;47897;50.322;18.892;2023-02-04T02:30:43;3.30;;;1.70;;
61938;SDS011;47897;50.322;18.892;2023-02-04T02:35:43;3.50;;;2.20;;
61938;SDS011;47897;50.322;18.892;2023-02-04T02:38:10;4.50;;;2.00;;
61938;SDS011;47897;50.322;18.892;2023-02-04T02:40:37;4.70;;;2.30;;
61938;SDS011;47897;50.322;18.892;2023-02-04T02:43:04;5.40;;;3.20;;
61938;SDS011;47897;50.322;18.892;2023-02-04T02:45:31;5.80;;;2.90;;
61938;SDS011;47897;50.322;18.892;2023-02-04T02:47:59;3.50;;;1.90;;
61938;SDS011;47897;50.322;18.892;2023-02-04T02:50:29;4.20;;;1.50;;
61938;SDS011;47897;50.322;18.892;2023-02-04T02:52:56;2.10;;;1.40;;
61938;SDS011;47897;50.322;18.892;2023-02-04T02:55:24;4.00;;;2.10;;
61938;SDS011;47897;50.322;18.892;2023-02-04T02:57:51;3.90;;;2.20;;
61938;SDS011;47897;50.322;18.892;2023-02-04T03:00:27;6.40;;;3.70;;
61938;SDS011;47897;50.322;18.892;2023-02-04T03:02:59;4.50;;;2.70;;
61938;SDS011;47897;50.322;18.892;2023-02-04T03:05:28;4.10;;;2.90;;
61938;SDS011;47897;50.322;18.892;2023-02-04T03:07:55;4.20;;;2.30;;
61938;SDS011;47897;50.322;18.892;2023-02-04T03:10:22;3.20;;;2.40;;
61938;SDS011;47897;50.322;18.892;2023-02-04T03:12:49;3.20;;;2.20;;
61938;SDS011;47897;50.322;18.892;2023-02-04T03:15:15;4.20;;;2.20;;
61938;SDS011;47897;50.322;18.892;2023-02-04T03:17:42;4.80;;;2.10;;
61938;SDS011;47897;50.322;18.892;2023-02-04T03:20:10;4.10;;;1.70;;
61938;SDS011;47897;50.322;18.892;2023-02-04T03:22:37;3.30;;;2.30;;
61938;SDS011;47897;50.322;18.892;2023-02-04T03:25:04;3.50;;;2.50;;
61938;SDS011;47897;50.322;18.892;2023-02-04T03:27:30;3.20;;;1.80;;
61938;SDS011;47897;50.322;18.892;2023-02-04T03:29:58;4.10;;;2.50;;
61938;SDS011;47897;50.322;18.892;2023-02-04T03:32:25;3.00;;;1.70;;
61938;SDS011;47897;50.322;18.892;2023-02-04T03:34:51;4.20;;;2.10;;
61938;SDS011;47897;50.322;18.892;2023-02-04T03:37:18;2.90;;;1.80;;
61938;SDS011;47897;50.322;18.892;2023-02-04T03:39:44;4.00;;;2.60;;
61938;SDS011;47897;50.322;18.892;2023-02-04T03:42:11;2.20;;;1.50;;
61938;SDS011;47897;50.322;18.892;2023-02-04T03:44:38;8.90;;;5.70;;
61938;SDS011;47897;50.322;18.892;2023-02-04T03:47:04;5.80;;;4.10;;
61938;SDS011;47897;50.322;18.892;2023-02-04T03:49:31;18.20;;;13.50;;
61938;SDS011;47897;50.322;18.892;2023-02-04T03:51:57;16.00;;;14.30;;
61938;SDS011;47897;50.322;18.892;2023-02-04T03:54:24;6.80;;;3.70;;
61938;SDS011;47897;50.322;18.892;2023-02-04T03:56:51;6.90;;;3.50;;
61938;SDS011;47897;50.322;18.892;2023-02-04T03:59:17;7.60;;;4.90;;
61938;SDS011;47897;50.322;18.892;2023-02-04T04:01:44;12.20;;;7.80;;
61938;SDS011;47897;50.322;18.892;2023-02-04T04:04:11;10.70;;;5.40;;
61938;SDS011;47897;50.322;18.892;2023-02-04T04:06:37;13.40;;;8.70;;
61938;SDS011;47897;50.322;18.892;2023-02-04T04:09:04;13.00;;;6.50;;
61938;SDS011;47897;50.322;18.892;2023-02-04T04:11:30;10.80;;;6.60;;
61938;SDS011;47897;50.322;18.892;2023-02-04T04:13:57;9.80;;;7.00;;
61938;SDS011;47897;50.322;18.892;2023-02-04T04:16:24;12.30;;;6.50;;
61938;SDS011;47897;50.322;18.892;2023-02-04T04:18:51;15.20;;;11.20;;
61938;SDS011;47897;50.322;18.892;2023-02-04T04:21:17;10.80;;;6.40;;
61938;SDS011;47897;50.322;18.892;2023-02-04T04:23:44;8.50;;;5.50;;
61938;SDS011;47897;50.322;18.892;2023-02-04T04:26:11;10.00;;;6.70;;
61938;SDS011;47897;50.322;18.892;2023-02-04T04:28:37;11.20;;;7.80;;
61938;SDS011;47897;50.322;18.892;2023-02-04T04:31:04;14.20;;;7.40;;
61938;SDS011;47897;50.322;18.892;2023-02-04T04:33:31;11.30;;;7.80;;
61938;SDS011;47897;50.322;18.892;2023-02-04T04:35:58;9.70;;;6.00;;
61938;SDS011;47897;50.322;18.892;2023-02-04T04:38:24;12.70;;;7.40;;
61938;SDS011;47897;50.322;18.892;2023-02-04T04:40:51;10.90;;;6.50;;
61938;SDS011;47897;50.322;18.892;2023-02-04T04:43:18;8.20;;;5.70;;
61938;SDS011;47897;50.322;18.892;2023-02-04T04:45:45;10.80;;;6.10;;
61938;SDS011;47897;50.322;18.892;2023-02-04T04:48:12;9.80;;;5.90;;
61938;SDS011;47897;50.322;18.892;2023-02-04T04:50:38;12.70;;;7.00;;
61938;SDS011;47897;50.322;18.892;2023-02-04T04:53:05;14.10;;;8.90;;
61938;SDS011;47897;50.322;18.892;2023-02-04T04:55:36;11.50;;;7.10;;
61938;SDS011;47897;50.322;18.892;2023-02-04T04:58:04;13.30;;;9.30;;
61938;SDS011;47897;50.322;18.892;2023-02-04T05:00:31;9.40;;;6.10;;
61938;SDS011;47897;50.322;18.892;2023-02-04T05:02:57;8.80;;;6.50;;
61938;SDS011;47897;50.322;18.892;2023-02-04T05:05:24;9.20;;;4.70;;
61938;SDS011;47897;50.322;18.892;2023-02-04T05:07:51;12.30;;;8.00;;
61938;SDS011;47897;50.322;18.892;2023-02-04T05:10:19;9.70;;;7.10;;
61938;SDS011;47897;50.322;18.892;2023-02-04T05:12:46;9.70;;;4.80;;
61938;SDS011;47897;50.322;18.892;2023-02-04T05:15:12;6.90;;;5.30;;
61938;SDS011;47897;50.322;18.892;2023-02-04T05:17:39;7.30;;;4.40;;
61938;SDS011;47897;50.322;18.892;2023-02-04T05:20:06;8.80;;;5.30;;
61938;SDS011;47897;50.322;18.892;2023-02-04T05:22:33;6.50;;;3.80;;
61938;SDS011;47897;50.322;18.892;2023-02-04T05:24:59;10.30;;;5.30;;
61938;SDS011;47897;50.322;18.892;2023-02-04T05:27:26;7.30;;;4.40;;
61938;SDS011;47897;50.322;18.892;2023-02-04T05:29:53;9.90;;;7.60;;
61938;SDS011;47897;50.322;18.892;2023-02-04T05:32:19;7.30;;;4.90;;
61938;SDS011;47897;50.322;18.892;2023-02-04T05:34:46;7.30;;;4.90;;
61938;SDS011;47897;50.322;18.892;2023-02-04T05:37:12;4.90;;;3.30;;
61938;SDS011;47897;50.322;18.892;2023-02-04T05:39:40;8.40;;;4.40;;
61938;SDS011;47897;50.322;18.892;2023-02-04T05:42:07;8.60;;;4.00;;
61938;SDS011;47897;50.322;18.892;2023-02-04T05:44:34;10.80;;;5.50;;
61938;SDS011;47897;50.322;18.892;2023-02-04T05:47:00;9.80;;;6.50;;
61938;SDS011;47897;50.322;18.892;2023-02-04T05:49:27;6.40;;;3.50;;
61938;SDS011;47897;50.322;18.892;2023-02-04T05:51:54;6.70;;;5.00;;
61938;SDS011;47897;50.322;18.892;2023-02-04T05:54:20;9.20;;;5.10;;
61938;SDS011;47897;50.322;18.892;2023-02-04T05:56:47;11.70;;;6.60;;
61938;SDS011;47897;50.322;18.892;2023-02-04T05:59:14;12.40;;;6.80;;
61938;SDS011;47897;50.322;18.892;2023-02-04T06:01:40;10.00;;;5.40;;
61938;SDS011;47897;50.322;18.892;2023-02-04T06:04:07;10.80;;;5.90;;
61938;SDS011;47897;50.322;18.892;2023-02-04T06:06:34;11.70;;;8.00;;
61938;SDS011;47897;50.322;18.892;2023-02-04T06:09:00;10.20;;;5.80;;
61938;SDS011;47897;50.322;18.892;2023-02-04T06:11:27;11.70;;;7.10;;
61938;SDS011;47897;50.322;18.892;2023-02-04T06:13:53;13.30;;;8.20;;
61938;SDS011;47897;50.322;18.892;2023-02-04T06:16:20;10.00;;;6.50;;
61938;SDS011;47897;50.322;18.892;2023-02-04T06:18:47;13.60;;;9.00;;
61938;SDS011;47897;50.322;18.892;2023-02-04T06:21:13;14.60;;;9.10;;
61938;SDS011;47897;50.322;18.892;2023-02-04T06:23:40;14.50;;;8.40;;
61938;SDS011;47897;50.322;18.892;2023-02-04T06:26:07;9.20;;;5.50;;
61938;SDS011;47897;50.322;18.892;2023-02-04T06:28:33;14.30;;;5.90;;
61938;SDS011;47897;50.322;18.892;2023-02-04T06:31:00;14.70;;;7.60;;
61938;SDS011;47897;50.322;18.892;2023-02-04T06:33:27;11.10;;;6.30;;
61938;SDS011;47897;50.322;18.892;2023-02-04T06:35:53;15.00;;;9.00;;
61938;SDS011;47897;50.322;18.892;2023-02-04T06:38:20;17.00;;;11.30;;
61938;SDS011;47897;50.322;18.892;2023-02-04T06:40:47;17.80;;;10.30;;
61938;SDS011;47897;50.322;18.892;2023-02-04T06:43:14;15.50;;;7.70;;
61938;SDS011;47897;50.322;18.892;2023-02-04T06:45:41;11.80;;;6.80;;
61938;SDS011;47897;50.322;18.892;2023-02-04T06:48:08;12.00;;;8.10;;
61938;SDS011;47897;50.322;18.892;2023-02-04T06:50:35;14.60;;;9.60;;
61938;SDS011;47897;50.322;18.892;2023-02-04T06:53:01;11.50;;;6.00;;
61938;SDS011;47897;50.322;18.892;2023-02-04T06:55:28;21.30;;;11.80;;
61938;SDS011;47897;50.322;18.892;2023-02-04T06:57:54;12.30;;;7.30;;
61938;SDS011;47897;50.322;18.892;2023-02-04T07:00:21;19.30;;;10.50;;
61938;SDS011;47897;50.322;18.892;2023-02-04T07:02:48;17.30;;;11.00;;
61938;SDS011;47897;50.322;18.892;2023-02-04T07:05:14;11.60;;;5.80;;
61938;SDS011;47897;50.322;18.892;2023-02-04T07:07:41;20.70;;;11.80;;
61938;SDS011;47897;50.322;18.892;2023-02-04T07:10:08;13.90;;;8.20;;
61938;SDS011;47897;50.322;18.892;2023-02-04T07:12:34;15.00;;;8.70;;
61938;SDS011;47897;50.322;18.892;2023-02-04T07:15:01;17.10;;;11.60;;
61938;SDS011;47897;50.322;18.892;2023-02-04T07:17:28;11.20;;;6.60;;
61938;SDS011;47897;50.322;18.892;2023-02-04T07:19:54;14.90;;;8.70;;
61938;SDS011;47897;50.322;18.892;2023-02-04T07:22:21;21.30;;;11.30;;
61938;SDS011;47897;50.322;18.892;2023-02-04T07:24:48;18.00;;;9.50;;
61938;SDS011;47897;50.322;18.892;2023-02-04T07:27:14;18.10;;;8.10;;
61938;SDS011;47897;50.322;18.892;2023-02-04T07:29:41;17.60;;;7.60;;
61938;SDS011;47897;50.322;18.892;2023-02-04T07:32:08;16.30;;;9.30;;
61938;SDS011;47897;50.322;18.892;2023-02-04T07:34:34;20.50;;;10.00;;
61938;SDS011;47897;50.322;18.892;2023-02-04T07:37:01;13.20;;;6.50;;
61938;SDS011;47897;50.322;18.892;2023-02-04T07:39:28;16.80;;;9.30;;
61938;SDS011;47897;50.322;18.892;2023-02-04T07:41:54;15.40;;;8.20;;
61938;SDS011;47897;50.322;18.892;2023-02-04T07:44:21;12.30;;;6.90;;
61938;SDS011;47897;50.322;18.892;2023-02-04T07:46:48;22.00;;;11.30;;
61938;SDS011;47897;50.322;18.892;2023-02-04T07:49:14;16.00;;;9.60;;
61938;SDS011;47897;50.322;18.892;2023-02-04T07:51:41;15.30;;;7.80;;
61938;SDS011;47897;50.322;18.892;2023-02-04T07:54:07;8.60;;;5.70;;
61938;SDS011;47897;50.322;18.892;2023-02-04T07:56:34;18.10;;;10.40;;
61938;SDS011;47897;50.322;18.892;2023-02-04T07:59:01;18.10;;;8.20;;
61938;SDS011;47897;50.322;18.892;2023-02-04T08:01:27;15.30;;;9.20;;
61938;SDS011;47897;50.322;18.892;2023-02-04T08:03:54;17.80;;;9.40;;
61938;SDS011;47897;50.322;18.892;2023-02-04T08:06:21;18.10;;;8.80;;
61938;SDS011;47897;50.322;18.892;2023-02-04T08:08:48;10.10;;;5.80;;
61938;SDS011;47897;50.322;18.892;2023-02-04T08:11:14;20.60;;;10.50;;
61938;SDS011;47897;50.322;18.892;2023-02-04T08:13:41;15.60;;;9.90;;
61938;SDS011;47897;50.322;18.892;2023-02-04T08:16:08;11.30;;;6.40;;
61938;SDS011;47897;50.322;18.892;2023-02-04T08:18:34;14.20;;;6.60;;
61938;SDS011;47897;50.322;18.892;2023-02-04T08:21:01;13.20;;;7.10;;
61938;SDS011;47897;50.322;18.892;2023-02-04T08:23:30;19.10;;;11.50;;
61938;SDS011;47897;50.322;18.892;2023-02-04T08:25:56;11.60;;;7.80;;
61938;SDS011;47897;50.322;18.892;2023-02-04T08:28:23;17.00;;;9.90;;
61938;SDS011;47897;50.322;18.892;2023-02-04T08:30:50;17.40;;;9.80;;
61938;SDS011;47897;50.322;18.892;2023-02-04T08:33:16;12.60;;;8.00;;
61938;SDS011;47897;50.322;18.892;2023-02-04T08:35:43;14.10;;;8.90;;
61938;SDS011;47897;50.322;18.892;2023-02-04T08:38:10;18.60;;;11.20;;
61938;SDS011;47897;50.322;18.892;2023-02-04T08:40:37;11.60;;;7.30;;
61938;SDS011;47897;50.322;18.892;2023-02-04T08:43:03;25.80;;;18.20;;
61938;SDS011;47897;50.322;18.892;2023-02-04T08:45:30;17.90;;;10.20;;
61938;SDS011;47897;50.322;18.892;2023-02-04T08:47:56;16.90;;;10.80;;
61938;SDS011;47897;50.322;18.892;2023-02-04T08:50:23;20.90;;;11.20;;
61938;SDS011;47897;50.322;18.892;2023-02-04T08:52:50;14.70;;;7.80;;
61938;SDS011;47897;50.322;18.892;2023-02-04T08:55:16;12.70;;;7.80;;
61938;SDS011;47897;50.322;18.892;2023-02-04T08:57:43;15.50;;;9.90;;
61938;SDS011;47897;50.322;18.892;2023-02-04T09:00:10;13.80;;;9.10;;
61938;SDS011;47897;50.322;18.892;2023-02-04T09:02:37;11.90;;;7.90;;
61938;SDS011;47897;50.322;18.892;2023-02-04T09:05:04;19.60;;;11.70;;
61938;SDS011;47897;50.322;18.892;2023-02-04T09:07:30;20.90;;;13.00;;
61938;SDS011;47897;50.322;18.892;2023-02-04T09:09:57;17.50;;;9.10;;
61938;SDS011;47897;50.322;18.892;2023-02-04T09:12:24;19.00;;;9.90;;
61938;SDS011;47897;50.322;18.892;2023-02-04T09:14:50;18.70;;;12.30;;
61938;SDS011;47897;50.322;18.892;2023-02-04T09:17:17;14.30;;;8.60;;
61938;SDS011;47897;50.322;18.892;2023-02-04T09:19:44;14.40;;;8.60;;
61938;SDS011;47897;50.322;18.892;2023-02-04T09:22:11;15.50;;;8.50;;
61938;SDS011;47897;50.322;18.892;2023-02-04T09:24:38;17.60;;;11.40;;
61938;SDS011;47897;50.322;18.892;2023-02-04T09:27:05;19.50;;;11.90;;
61938;SDS011;47897;50.322;18.892;2023-02-04T09:29:31;16.70;;;10.20;;
61938;SDS011;47897;50.322;18.892;2023-02-04T09:31:58;13.30;;;7.50;;
61938;SDS011;47897;50.322;18.892;2023-02-04T09:34:25;14.00;;;9.10;;
61938;SDS011;47897;50.322;18.892;2023-02-04T09:36:51;10.00;;;6.50;;
61938;SDS011;47897;50.322;18.892;2023-02-04T09:39:18;20.60;;;14.20;;
61938;SDS011;47897;50.322;18.892;2023-02-04T09:41:45;14.50;;;8.50;;
61938;SDS011;47897;50.322;18.892;2023-02-04T09:44:13;15.30;;;9.00;;
61938;SDS011;47897;50.322;18.892;2023-02-04T09:46:41;12.10;;;7.20;;
61938;SDS011;47897;50.322;18.892;2023-02-04T09:49:10;11.10;;;5.50;;
61938;SDS011;47897;50.322;18.892;2023-02-04T09:51:36;23.30;;;15.00;;
61938;SDS011;47897;50.322;18.892;2023-02-04T09:54:17;11.30;;;6.90;;
61938;SDS011;47897;50.322;18.892;2023-02-04T09:56:44;10.90;;;7.50;;
61938;SDS011;47897;50.322;18.892;2023-02-04T09:59:12;13.20;;;10.00;;
61938;SDS011;47897;50.322;18.892;2023-02-04T10:01:39;9.00;;;5.20;;
61938;SDS011;47897;50.322;18.892;2023-02-04T10:04:11;12.70;;;5.60;;
61938;SDS011;47897;50.322;18.892;2023-02-04T10:06:39;11.40;;;5.80;;
61938;SDS011;47897;50.322;18.892;2023-02-04T10:09:07;15.30;;;8.80;;
61938;SDS011;47897;50.322;18.892;2023-02-04T10:11:35;16.60;;;8.40;;
61938;SDS011;47897;50.322;18.892;2023-02-04T10:14:03;7.20;;;4.30;;
61938;SDS011;47897;50.322;18.892;2023-02-04T10:16:33;13.20;;;6.50;;
61938;SDS011;47897;50.322;18.892;2023-02-04T10:19:02;17.90;;;10.20;;
61938;SDS011;47897;50.322;18.892;2023-02-04T10:21:30;12.40;;;6.70;;
61938;SDS011;47897;50.322;18.892;2023-02-04T10:23:58;10.00;;;5.80;;
61938;SDS011;47897;50.322;18.892;2023-02-04T10:26:26;6.90;;;4.50;;
61938;SDS011;47897;50.322;18.892;2023-02-04T10:28:59;16.90;;;11.60;;
61938;SDS011;47897;50.322;18.892;2023-02-04T10:36:49;12.30;;;6.10;;
61938;SDS011;47897;50.322;18.892;2023-02-04T10:39:21;9.60;;;6.20;;
61938;SDS011;47897;50.322;18.892;2023-02-04T10:41:49;10.80;;;5.90;;
61938;SDS011;47897;50.322;18.892;2023-02-04T10:44:17;15.10;;;7.70;;
61938;SDS011;47897;50.322;18.892;2023-02-04T10:46:44;14.40;;;8.40;;
61938;SDS011;47897;50.322;18.892;2023-02-04T10:49:19;7.80;;;4.60;;
61938;SDS011;47897;50.322;18.892;2023-02-04T10:51:46;10.80;;;5.90;;
61938;SDS011;47897;50.322;18.892;2023-02-04T10:54:13;9.30;;;5.10;;
61938;SDS011;47897;50.322;18.892;2023-02-04T10:56:59;14.20;;;7.70;;
61938;SDS011;47897;50.322;18.892;2023-02-04T10:59:26;10.70;;;5.50;;
61938;SDS011;47897;50.322;18.892;2023-02-04T11:01:55;11.50;;;6.40;;
61938;SDS011;47897;50.322;18.892;2023-02-04T11:04:23;14.50;;;8.20;;
61938;SDS011;47897;50.322;18.892;2023-02-04T11:06:50;12.70;;;6.60;;
61938;SDS011;47897;50.322;18.892;2023-02-04T11:09:18;15.20;;;7.00;;
61938;SDS011;47897;50.322;18.892;2023-02-04T11:11:46;13.70;;;7.20;;
61938;SDS011;47897;50.322;18.892;2023-02-04T11:14:17;9.60;;;5.60;;
61938;SDS011;47897;50.322;18.892;2023-02-04T11:16:47;13.60;;;7.40;;
61938;SDS011;47897;50.322;18.892;2023-02-04T11:19:14;19.30;;;9.30;;
61938;SDS011;47897;50.322;18.892;2023-02-04T11:21:43;17.60;;;8.80;;
61938;SDS011;47897;50.322;18.892;2023-02-04T11:26:38;11.90;;;6.80;;
61938;SDS011;47897;50.322;18.892;2023-02-04T11:34:22;10.80;;;5.80;;
61938;SDS011;47897;50.322;18.892;2023-02-04T11:39:40;13.20;;;5.20;;
61938;SDS011;47897;50.322;18.892;2023-02-04T11:44:50;8.10;;;4.50;;
61938;SDS011;47897;50.322;18.892;2023-02-04T11:47:17;19.60;;;11.10;;
61938;SDS011;47897;50.322;18.892;2023-02-04T11:49:45;11.50;;;5.90;;
61938;SDS011;47897;50.322;18.892;2023-02-04T11:52:18;12.30;;;7.00;;
61938;SDS011;47897;50.322;18.892;2023-02-04T11:55:19;14.70;;;5.70;;
61938;SDS011;47897;50.322;18.892;2023-02-04T11:57:39;13.50;;;6.80;;
61938;SDS011;47897;50.322;18.892;2023-02-04T12:03:21;12.60;;;6.60;;
61938;SDS011;47897;50.322;18.892;2023-02-04T12:05:48;8.30;;;3.60;;
61938;SDS011;47897;50.322;18.892;2023-02-04T12:10:48;6.30;;;3.30;;
61938;SDS011;47897;50.322;18.892;2023-02-04T12:13:17;5.10;;;2.50;;
61938;SDS011;47897;50.322;18.892;2023-02-04T12:15:50;8.60;;;4.00;;
61938;SDS011;47897;50.322;18.892;2023-02-04T12:18:17;10.70;;;5.30;;
61938;SDS011;47897;50.322;18.892;2023-02-04T12:20:44;15.10;;;6.30;;
61938;SDS011;47897;50.322;18.892;2023-02-04T12:23:11;14.30;;;5.90;;
61938;SDS011;47897;50.322;18.892;2023-02-04T12:25:37;20.60;;;7.30;;
61938;SDS011;47897;50.322;18.892;2023-02-04T12:28:05;14.40;;;6.10;;
61938;SDS011;47897;50.322;18.892;2023-02-04T12:30:32;17.30;;;7.80;;
61938;SDS011;47897;50.322;18.892;2023-02-04T12:32:58;22.50;;;11.20;;
61938;SDS011;47897;50.322;18.892;2023-02-04T12:35:25;21.10;;;10.10;;
61938;SDS011;47897;50.322;18.892;2023-02-04T12:37:51;29.70;;;13.10;;
61938;SDS011;47897;50.322;18.892;2023-02-04T12:40:20;25.50;;;15.30;;
61938;SDS011;47897;50.322;18.892;2023-02-04T12:42:47;36.60;;;19.00;;
61938;SDS011;47897;50.322;18.892;2023-02-04T12:45:14;12.40;;;6.60;;
61938;SDS011;47897;50.322;18.892;2023-02-04T12:47:41;11.40;;;5.40;;
61938;SDS011;47897;50.322;18.892;2023-02-04T12:50:10;27.00;;;12.30;;
61938;SDS011;47897;50.322;18.892;2023-02-04T12:52:37;16.00;;;8.90;;
61938;SDS011;47897;50.322;18.892;2023-02-04T12:55:05;55.90;;;24.20;;
61938;SDS011;47897;50.322;18.892;2023-02-04T12:57:33;34.80;;;13.70;;
61938;SDS011;47897;50.322;18.892;2023-02-04T12:59:59;20.10;;;9.00;;
61938;SDS011;47897;50.322;18.892;2023-02-04T13:02:27;54.20;;;28.30;;
61938;SDS011;47897;50.322;18.892;2023-02-04T13:04:54;22.40;;;10.70;;
61938;SDS011;47897;50.322;18.892;2023-02-04T13:07:21;36.30;;;16.40;;
61938;SDS011;47897;50.322;18.892;2023-02-04T13:09:48;67.60;;;31.20;;
61938;SDS011;47897;50.322;18.892;2023-02-04T13:12:15;49.00;;;23.00;;
61938;SDS011;47897;50.322;18.892;2023-02-04T13:14:42;38.40;;;21.20;;
61938;SDS011;47897;50.322;18.892;2023-02-04T13:17:08;25.70;;;15.50;;
61938;SDS011;47897;50.322;18.892;2023-02-04T13:19:35;40.10;;;18.60;;
61938;SDS011;47897;50.322;18.892;2023-02-04T13:22:02;34.20;;;17.50;;
61938;SDS011;47897;50.322;18.892;2023-02-04T13:24:29;28.30;;;17.20;;
61938;SDS011;47897;50.322;18.892;2023-02-04T13:26:55;26.10;;;14.20;;
61938;SDS011;47897;50.322;18.892;2023-02-04T13:29:22;25.70;;;12.40;;
61938;SDS011;47897;50.322;18.892;2023-02-04T13:31:49;26.20;;;9.60;;
61938;SDS011;47897;50.322;18.892;2023-02-04T13:34:17;34.50;;;10.40;;
61938;SDS011;47897;50.322;18.892;2023-02-04T13:36:44;46.70;;;23.30;;
61938;SDS011;47897;50.322;18.892;2023-02-04T13:39:11;38.80;;;22.20;;
61938;SDS011;47897;50.322;18.892;2023-02-04T13:41:37;27.60;;;14.50;;
61938;SDS011;47897;50.322;18.892;2023-02-04T13:44:06;34.80;;;18.30;;
61938;SDS011;47897;50.322;18.892;2023-02-04T13:46:33;21.30;;;8.90;;
61938;SDS011;47897;50.322;18.892;2023-02-04T13:49:00;32.90;;;15.20;;
61938;SDS011;47897;50.322;18.892;2023-02-04T13:51:26;18.00;;;6.30;;
61938;SDS011;47897;50.322;18.892;2023-02-04T13:53:53;15.70;;;7.90;;
61938;SDS011;47897;50.322;18.892;2023-02-04T13:56:20;11.40;;;6.50;;
61938;SDS011;47897;50.322;18.892;2023-02-04T13:58:47;23.60;;;14.80;;
61938;SDS011;47897;50.322;18.892;2023-02-04T14:01:13;11.90;;;6.90;;
61938;SDS011;47897;50.322;18.892;2023-02-04T14:03:40;22.20;;;11.70;;
61938;SDS011;47897;50.322;18.892;2023-02-04T14:06:08;15.60;;;8.20;;
61938;SDS011;47897;50.322;18.892;2023-02-04T14:08:35;22.80;;;13.40;;
61938;SDS011;47897;50.322;18.892;2023-02-04T14:11:02;18.70;;;10.50;;
61938;SDS011;47897;50.322;18.892;2023-02-04T14:13:28;15.20;;;8.30;;
61938;SDS011;47897;50.322;18.892;2023-02-04T14:15:55;21.40;;;10.00;;
61938;SDS011;47897;50.322;18.892;2023-02-04T14:18:22;24.40;;;11.60;;
61938;SDS011;47897;50.322;18.892;2023-02-04T14:20:48;15.90;;;8.00;;
61938;SDS011;47897;50.322;18.892;2023-02-04T14:23:15;12.50;;;6.80;;
61938;SDS011;47897;50.322;18.892;2023-02-04T14:25:42;9.80;;;5.40;;
61938;SDS011;47897;50.322;18.892;2023-02-04T14:28:08;33.30;;;15.10;;
61938;SDS011;47897;50.322;18.892;2023-02-04T14:30:35;50.70;;;17.90;;
61938;SDS011;47897;50.322;18.892;2023-02-04T14:33:02;21.10;;;11.10;;
61938;SDS011;47897;50.322;18.892;2023-02-04T14:35:29;33.00;;;14.30;;
61938;SDS011;47897;50.322;18.892;2023-02-04T14:37:55;37.40;;;13.90;;
61938;SDS011;47897;50.322;18.892;2023-02-04T14:40:22;50.30;;;19.60;;
61938;SDS011;47897;50.322;18.892;2023-02-04T14:42:49;43.90;;;21.50;;
61938;SDS011;47897;50.322;18.892;2023-02-04T14:45:15;51.80;;;25.90;;
61938;SDS011;47897;50.322;18.892;2023-02-04T14:47:42;69.20;;;34.40;;
61938;SDS011;47897;50.322;18.892;2023-02-04T14:50:13;36.10;;;18.80;;